createdAt,value
2023-08-29T00:05:08.631Z,99753.66
2023-08-29T00:11:13.020Z,99760.69
2023-08-29T00:17:17.666Z,99773.44
2023-08-29T00:23:20.452Z,99757.28
2023-08-29T00:29:24.048Z,99753.91
2023-08-29T00:35:26.290Z,99754.75
2023-08-29T00:41:28.644Z,99756.06
2023-08-29T00:47:31.030Z,99771.28
2023-08-29T00:53:36.627Z,99771.75
2023-08-29T00:59:38.923Z,99785.25
2023-08-29T01:05:41.110Z,99776.03
2023-08-29T01:11:54.431Z,99769.19
2023-08-29T01:18:02.677Z,99762.66
2023-08-29T01:24:17.604Z,99767.03
2023-08-29T01:30:21.939Z,99764.78
2023-08-29T01:36:28.225Z,99763.00
2023-08-29T01:42:32.736Z,99761.38
2023-08-29T01:48:36.052Z,99761.56
2023-08-29T01:54:38.309Z,99758.84
2023-08-29T02:00:42.554Z,99775.41
2023-08-29T02:06:44.814Z,99767.44
2023-08-29T02:12:47.481Z,99758.81
2023-08-29T02:18:50.128Z,99757.13
2023-08-29T02:24:52.856Z,99763.00
2023-08-29T02:30:56.481Z,99758.22
2023-08-29T02:36:59.539Z,99766.50
2023-08-29T02:43:07.278Z,99767.03
2023-08-29T02:49:09.527Z,99768.06
2023-08-29T02:55:11.992Z,99773.53
2023-08-29T03:01:15.253Z,99763.91
2023-08-29T03:07:18.439Z,99752.44
2023-08-29T03:13:24.264Z,99749.38
2023-08-29T03:19:26.780Z,99741.44
2023-08-29T03:25:29.291Z,99741.44
2023-08-29T03:31:31.510Z,99741.38
2023-08-29T03:37:33.958Z,99736.44
2023-08-29T03:43:37.400Z,99732.19
2023-08-29T03:49:39.676Z,99736.81
2023-08-29T03:55:44.251Z,99724.38
2023-08-29T04:02:10.905Z,99731.94
2023-08-29T04:08:13.796Z,99730.69
2023-08-29T04:14:17.592Z,99731.03
2023-08-29T04:20:23.233Z,99733.63
2023-08-29T04:26:31.662Z,99721.69
2023-08-29T04:32:38.790Z,99724.97
2023-08-29T04:38:43.493Z,99725.28
2023-08-29T04:44:48.160Z,99726.63
2023-08-29T04:50:50.739Z,99724.16
2023-08-29T04:56:53.164Z,99725.44
2023-08-29T05:02:56.536Z,99729.09
2023-08-29T05:08:59.072Z,99734.66
2023-08-29T05:15:01.470Z,99730.53
2023-08-29T05:21:06.327Z,99725.91
2023-08-29T05:27:08.958Z,99716.06
2023-08-29T05:33:11.863Z,99719.31
2023-08-29T05:39:14.734Z,99726.09
2023-08-29T05:45:18.554Z,99729.44
2023-08-29T05:51:22.344Z,99729.97
2023-08-29T05:57:24.763Z,99727.03
2023-08-29T06:03:29.397Z,99715.94
2023-08-29T06:09:34.562Z,99716.56
2023-08-29T06:15:39.219Z,99719.50
2023-08-29T06:21:42.331Z,99709.63
2023-08-29T06:27:49.670Z,99715.63
2023-08-29T06:33:51.891Z,99712.72
2023-08-29T06:39:54.149Z,99715.47
2023-08-29T06:45:59.805Z,99711.91
2023-08-29T06:52:02.529Z,99709.38
2023-08-29T06:58:09.545Z,99706.13
2023-08-29T07:04:15.173Z,99709.34
2023-08-29T07:10:17.956Z,99702.16
2023-08-29T07:16:20.869Z,99707.63
2023-08-29T07:22:24.876Z,99717.59
2023-08-29T07:28:27.167Z,99711.78
2023-08-29T07:34:30.262Z,99709.00
2023-08-29T07:40:35.085Z,99704.09
2023-08-29T07:46:37.341Z,99704.69
2023-08-29T07:52:42.148Z,99702.53
2023-08-29T07:58:44.637Z,99697.03
2023-08-29T08:04:47.347Z,99689.41
2023-08-29T08:10:49.969Z,99684.09
2023-08-29T08:16:52.231Z,99674.75
2023-08-29T08:22:54.978Z,99665.59
2023-08-29T08:28:59.654Z,99649.81
2023-08-29T08:35:02.342Z,99657.75
2023-08-29T08:41:05.426Z,99650.75
2023-08-29T08:47:08.758Z,99650.47
2023-08-29T08:53:13.223Z,99632.88
2023-08-29T08:59:19.921Z,99642.25
2023-08-29T09:06:31.998Z,99637.38
2023-08-29T09:12:34.426Z,99627.72
2023-08-29T09:18:43.950Z,99615.19
2023-08-29T09:24:46.102Z,99615.59
2023-08-29T09:30:50.577Z,99605.53
2023-08-29T09:36:53.437Z,99601.38
2023-08-29T09:43:02.980Z,99602.66
2023-08-29T09:49:06.151Z,99593.09
2023-08-29T09:55:11.559Z,99605.91
2023-08-29T10:01:15.156Z,99598.56
2023-08-29T10:07:21.913Z,99590.06
2023-08-29T10:13:25.474Z,99586.88
2023-08-29T10:19:30.103Z,99579.19
2023-08-29T10:25:33.173Z,99571.19
2023-08-29T10:31:38.548Z,99572.69
2023-08-29T10:37:44.407Z,99559.03
2023-08-29T10:43:48.881Z,99558.56
2023-08-29T10:50:05.111Z,99559.53
2023-08-29T10:56:09.388Z,99564.31
2023-08-29T11:02:25.515Z,99555.31
2023-08-29T11:08:28.934Z,99530.84
2023-08-29T11:14:57.231Z,99525.25
2023-08-29T11:21:06.082Z,99531.81
2023-08-29T11:27:10.814Z,99522.13
2023-08-29T11:33:13.792Z,99523.84
2023-08-29T11:39:19.176Z,99515.63
2023-08-29T11:45:44.507Z,99498.78
2023-08-29T11:51:49.805Z,99492.94
2023-08-29T11:57:54.391Z,99479.19
2023-08-29T12:03:56.649Z,99474.38
2023-08-29T12:10:07.840Z,99473.97
2023-08-29T12:16:18.035Z,99463.13
2023-08-29T12:22:31.777Z,99472.16
2023-08-29T12:28:33.951Z,99455.63
2023-08-29T12:34:36.312Z,99447.53
2023-08-29T12:40:41.052Z,99423.72
2023-08-29T12:46:46.350Z,99421.44
2023-08-29T12:52:52.606Z,99407.63
2023-08-29T12:58:57.115Z,99404.00
2023-08-29T13:04:59.592Z,99401.50
2023-08-29T13:11:06.873Z,99404.28
2023-08-29T13:17:14.870Z,99395.25
2023-08-29T13:23:20.952Z,99388.44
2023-08-29T13:29:24.917Z,99381.88
2023-08-29T13:35:28.330Z,99364.97
2023-08-29T13:41:31.706Z,99356.88
2023-08-29T13:47:34.009Z,99357.75
2023-08-29T13:53:36.647Z,99364.34
2023-08-29T13:59:40.704Z,99364.91
2023-08-29T14:05:42.848Z,99366.88
2023-08-29T14:11:46.496Z,99386.66
2023-08-29T14:17:52.985Z,99388.16
2023-08-29T14:23:56.277Z,99380.22
2023-08-29T14:30:01.217Z,99385.72
2023-08-29T14:36:06.389Z,99378.47
2023-08-29T14:42:09.239Z,99377.41
2023-08-29T14:48:16.766Z,99356.00
2023-08-29T14:54:19.075Z,99347.19
2023-08-29T15:00:23.408Z,99343.47
2023-08-29T15:06:27.013Z,99343.81
2023-08-29T15:12:29.328Z,99351.84
2023-08-29T15:18:31.781Z,99349.13
2023-08-29T15:24:34.241Z,99338.03
2023-08-29T15:30:36.866Z,99337.63
2023-08-29T15:36:40.301Z,99336.84
2023-08-29T15:42:45.323Z,99332.31
2023-08-29T15:48:47.536Z,99322.63
2023-08-29T15:54:52.688Z,99327.72
2023-08-29T16:00:57.597Z,99336.88
2023-08-29T16:07:01.284Z,99341.19
2023-08-29T16:13:05.656Z,99344.69
2023-08-29T16:19:08.550Z,99348.81
2023-08-29T16:25:13.080Z,99343.47
2023-08-29T16:31:16.581Z,99353.34
2023-08-29T16:37:20.297Z,99358.19
2023-08-29T16:43:23.252Z,99370.56
2023-08-29T16:49:28.460Z,99367.66
2023-08-29T16:55:33.830Z,99370.44
2023-08-29T17:01:36.074Z,99379.13
2023-08-29T17:07:40.269Z,99385.72
2023-08-29T17:13:42.959Z,99397.72
2023-08-29T17:19:47.779Z,99405.19
2023-08-29T17:25:50.316Z,99400.97
2023-08-29T17:31:53.008Z,99413.34
2023-08-29T17:37:55.249Z,99418.34
2023-08-29T17:43:57.531Z,99419.94
2023-08-29T17:50:00.228Z,99414.47
2023-08-29T17:56:02.533Z,99417.84
2023-08-29T18:02:06.185Z,99421.47
2023-08-29T18:08:09.430Z,99415.22
2023-08-29T18:14:13.301Z,99428.50
2023-08-29T18:20:16.185Z,99435.47
2023-08-29T18:26:18.518Z,99429.75
2023-08-29T18:32:20.929Z,99427.94
2023-08-29T18:38:24.830Z,99426.75
2023-08-29T18:44:27.022Z,99431.31
2023-08-29T18:50:29.658Z,99434.81
2023-08-29T18:56:34.219Z,99433.19
2023-08-29T19:02:36.422Z,99435.16
2023-08-29T19:08:38.635Z,99432.91
2023-08-29T19:14:41.244Z,99436.53
2023-08-29T19:20:43.530Z,99441.84
2023-08-29T19:26:48.587Z,99448.00
2023-08-29T19:32:51.038Z,99450.13
2023-08-29T19:39:05.012Z,99451.94
2023-08-29T19:45:15.677Z,99454.78
2023-08-29T19:51:18.782Z,99451.13
2023-08-29T19:57:21.242Z,99455.53
2023-08-29T20:03:23.856Z,99460.78
2023-08-29T20:09:27.154Z,99453.34
2023-08-29T20:15:30.663Z,99464.81
2023-08-29T20:21:34.256Z,99458.69
2023-08-29T20:27:36.440Z,99471.03
2023-08-29T20:33:38.648Z,99468.13
2023-08-29T20:39:42.914Z,99471.56
2023-08-29T20:45:46.835Z,99478.63
2023-08-29T20:51:50.868Z,99485.72
2023-08-29T20:57:57.460Z,99487.59
2023-08-29T21:04:00.263Z,99487.41
2023-08-29T21:10:10.728Z,99490.63
2023-08-29T21:16:18.224Z,99483.66
2023-08-29T21:22:20.610Z,99482.25
2023-08-29T21:28:27.910Z,99484.78
2023-08-29T21:34:31.578Z,99482.31
2023-08-29T21:40:44.843Z,99482.22
2023-08-29T21:46:47.050Z,99490.94
2023-08-29T21:52:49.964Z,99492.91
2023-08-29T21:58:54.822Z,99489.56
2023-08-29T22:05:00.268Z,99483.50
2023-08-29T22:11:03.279Z,99482.53
2023-08-29T22:17:07.191Z,99475.63
2023-08-29T22:23:10.590Z,99476.03
2023-08-29T22:29:14.189Z,99466.09
2023-08-29T22:35:18.442Z,99468.47
2023-08-29T22:41:33.546Z,99462.09
2023-08-29T22:47:38.941Z,99454.38
2023-08-29T22:53:41.140Z,99447.03
2023-08-29T22:59:43.896Z,99450.19
2023-08-29T23:05:46.347Z,99438.69
2023-08-29T23:11:49.061Z,99437.94
2023-08-29T23:17:52.394Z,99428.72
2023-08-29T23:23:56.217Z,99432.44
2023-08-29T23:29:59.592Z,99426.50
2023-08-29T23:36:04.033Z,99429.56
2023-08-29T23:42:08.272Z,99426.94
2023-08-29T23:48:12.062Z,99427.25
2023-08-29T23:54:16.139Z,99425.00
